Time;durP1;ratioP1;P1;durP2;ratioP2;P2;SDS_P1;SDS_P2;PMS_P1;PMS_P2;Temp;Humidity;BMP_temperature;BMP_pressure;BME280_temperature;BME280_humidity;BME280_pressure;Samples;Min_cycle;Max_cycle;Signal;HPM_P1;HPM_P2
2023/07/19 04:22:32;;;;;;;6.15;3.80;;;;;;;17.04;100.00;99990.00;5130437;27;20390;-64
2023/07/19 04:24:58;;;;;;;4.85;3.65;;;;;;;17.05;100.00;99991.66;5111980;28;20063;-64
2023/07/19 04:27:24;;;;;;;4.35;2.85;;;;;;;17.12;100.00;99994.28;5128161;28;20035;-65
2023/07/19 04:29:50;;;;;;;5.35;3.33;;;;;;;17.12;100.00;99991.59;5128698;28;20395;-64
2023/07/19 04:32:16;;;;;;;4.85;3.15;;;;;;;17.18;100.00;99996.91;5128954;28;20031;-65
2023/07/19 04:34:41;;;;;;;5.18;3.50;;;;;;;17.28;100.00;99999.91;5130206;28;20042;-65
2023/07/19 04:37:07;;;;;;;4.63;3.05;;;;;;;17.33;100.00;100001.91;5130125;28;20126;-64
2023/07/19 04:39:32;;;;;;;6.05;3.13;;;;;;;17.34;100.00;99995.50;5128526;28;20108;-64
2023/07/19 04:41:58;;;;;;;5.40;2.63;;;;;;;17.39;100.00;100001.03;5128701;28;20038;-64
2023/07/19 04:44:23;;;;;;;4.85;3.65;;;;;;;17.41;100.00;100007.03;5128638;28;20495;-64
2023/07/19 04:46:49;;;;;;;5.95;3.88;;;;;;;17.45;100.00;99999.31;5128660;28;20137;-64
2023/07/19 04:49:15;;;;;;;5.95;3.53;;;;;;;17.47;100.00;100000.72;5128284;28;20699;-64
2023/07/19 04:51:41;;;;;;;6.63;4.38;;;;;;;17.55;100.00;100007.72;5134949;28;20054;-62
2023/07/19 04:54:06;;;;;;;7.18;4.72;;;;;;;17.62;100.00;100003.88;5136245;27;20023;-65
2023/07/19 04:56:32;;;;;;;10.10;6.28;;;;;;;17.73;100.00;100010.41;5123060;28;20051;-64
2023/07/19 04:58:57;;;;;;;5.00;3.35;;;;;;;17.80;100.00;100004.94;5142506;28;20042;-62
2023/07/19 05:01:23;;;;;;;6.07;3.00;;;;;;;17.86;100.00;100010.25;5127770;27;20579;-65
2023/07/19 05:03:48;;;;;;;3.47;2.83;;;;;;;17.95;100.00;100007.25;5128603;28;20540;-65
2023/07/19 05:06:14;;;;;;;7.00;2.85;;;;;;;18.04;100.00;100006.69;5128352;28;20515;-65
2023/07/19 05:08:41;;;;;;;5.85;2.35;;;;;;;18.16;100.00;100004.06;5129365;28;20050;-63
2023/07/19 05:11:06;;;;;;;4.57;3.00;;;;;;;18.28;100.00;100007.63;5129086;28;20031;-64
2023/07/19 05:13:32;;;;;;;4.18;2.60;;;;;;;18.41;100.00;100009.31;5128281;28;20043;-65
2023/07/19 05:15:59;;;;;;;3.83;2.53;;;;;;;18.53;100.00;100003.94;5129415;27;20038;-61
2023/07/19 05:18:25;;;;;;;5.28;2.70;;;;;;;18.64;100.00;100009.34;5127964;28;20032;-62
2023/07/19 05:20:52;;;;;;;4.47;2.83;;;;;;;18.79;100.00;100002.75;5127910;27;20555;-62
2023/07/19 05:23:17;;;;;;;5.53;3.10;;;;;;;18.92;100.00;100005.22;5128137;28;20031;-62
2023/07/19 05:25:43;;;;;;;4.03;2.83;;;;;;;19.01;100.00;100003.81;5127946;28;20397;-62
2023/07/19 05:28:08;;;;;;;4.72;2.55;;;;;;;19.14;100.00;100005.44;5110739;28;20146;-62
2023/07/19 05:30:34;;;;;;;3.17;2.35;;;;;;;19.20;100.00;100013.44;5129023;27;20039;-61
2023/07/19 05:32:59;;;;;;;6.10;2.88;;;;;;;19.28;100.00;100003.31;5120609;27;20123;-62
2023/07/19 05:35:24;;;;;;;5.03;2.63;;;;;;;19.38;100.00;100012.50;5115314;28;20047;-62
2023/07/19 05:37:50;;;;;;;3.92;2.38;;;;;;;19.46;100.00;100009.41;5115374;28;20056;-61
2023/07/19 05:40:17;;;;;;;3.30;1.95;;;;;;;19.55;100.00;100017.97;5115058;28;20036;-61
2023/07/19 05:42:42;;;;;;;4.75;3.10;;;;;;;19.60;100.00;100018.13;5114110;28;20035;-62
2023/07/19 05:45:08;;;;;;;3.88;2.50;;;;;;;19.70;100.00;100025.63;5115147;28;20172;-63
2023/07/19 05:47:33;;;;;;;4.07;2.72;;;;;;;19.70;100.00;100010.22;5115193;28;20126;-62
2023/07/19 05:49:59;;;;;;;4.18;2.33;;;;;;;19.78;100.00;100019.84;5115143;28;20031;-63
2023/07/19 05:52:27;;;;;;;4.38;2.95;;;;;;;19.86;100.00;100024.06;5115054;28;20044;-63
2023/07/19 05:54:52;;;;;;;6.40;3.03;;;;;;;19.92;100.00;100023.09;5114984;28;20403;-62
2023/07/19 05:57:17;;;;;;;4.95;3.00;;;;;;;20.08;99.28;100024.19;5114861;28;20027;-61
2023/07/19 05:59:43;;;;;;;5.47;2.72;;;;;;;20.15;98.00;100014.91;5113629;28;20139;-62
2023/07/19 06:02:08;;;;;;;4.63;3.20;;;;;;;20.20;98.27;100020.41;5114887;28;20036;-61
2023/07/19 06:04:34;;;;;;;3.97;2.28;;;;;;;20.26;98.52;100021.31;5114821;28;20044;-61
2023/07/19 06:06:59;;;;;;;5.05;2.60;;;;;;;20.37;98.08;100019.63;5115126;28;20114;-62
2023/07/19 06:09:25;;;;;;;5.75;2.80;;;;;;;20.42;96.96;100030.53;5115364;28;20043;-61
2023/07/19 06:11:50;;;;;;;3.83;2.45;;;;;;;20.53;96.49;100032.38;5115157;28;20160;-61
2023/07/19 06:14:15;;;;;;;4.55;2.83;;;;;;;20.58;95.41;100029.78;5113998;28;20036;-61
2023/07/19 06:16:41;;;;;;;5.65;3.15;;;;;;;20.64;95.60;100038.81;5114904;28;20118;-61
2023/07/19 06:19:06;;;;;;;4.13;2.63;;;;;;;20.72;95.28;100038.38;5114775;28;20480;-61
2023/07/19 06:21:31;;;;;;;3.50;2.50;;;;;;;20.74;95.08;100042.50;5113438;28;20043;-62
2023/07/19 06:23:57;;;;;;;4.65;2.88;;;;;;;20.78;94.77;100040.94;5114583;28;20112;-63
2023/07/19 06:26:23;;;;;;;3.65;2.67;;;;;;;20.85;94.27;100036.19;5114360;28;20438;-63
2023/07/19 06:28:48;;;;;;;4.85;3.10;;;;;;;20.92;93.34;100037.91;5114172;28;20043;-63
2023/07/19 06:31:14;;;;;;;4.45;2.97;;;;;;;20.95;93.28;100046.38;5114286;27;20502;-63
2023/07/19 06:33:39;;;;;;;3.40;2.50;;;;;;;21.06;91.02;100050.03;5113048;28;20031;-61
2023/07/19 06:36:04;;;;;;;5.22;2.72;;;;;;;21.19;89.42;100040.75;5114228;28;20046;-62
2023/07/19 06:38:30;;;;;;;3.45;2.42;;;;;;;21.28;88.87;100050.13;5113962;28;20035;-62
2023/07/19 06:41:03;;;;;;;3.70;2.85;;;;;;;21.38;88.53;100053.81;5114091;28;20555;-60
2023/07/19 06:43:28;;;;;;;3.78;2.53;;;;;;;21.46;88.36;100054.50;5113726;28;20036;-61
2023/07/19 06:45:54;;;;;;;3.15;2.50;;;;;;;21.47;89.67;100054.22;5113309;28;20401;-63
2023/07/19 06:48:19;;;;;;;2.65;2.03;;;;;;;21.56;89.18;100055.44;5112509;28;20045;-62
2023/07/19 06:50:44;;;;;;;3.35;2.08;;;;;;;21.68;86.66;100058.84;5116297;27;20023;-62
2023/07/19 06:53:10;;;;;;;6.18;2.60;;;;;;;21.84;86.00;100059.91;5134377;27;20035;-63
2023/07/19 06:55:35;;;;;;;4.47;2.72;;;;;;;22.04;83.49;100051.19;5134259;27;20035;-62
2023/07/19 06:58:01;;;;;;;3.47;2.85;;;;;;;22.06;84.11;100050.94;5134259;27;20057;-62
2023/07/19 07:00:26;;;;;;;4.75;2.53;;;;;;;22.16;83.92;100057.31;5134177;27;20050;-62
2023/07/19 07:02:51;;;;;;;3.67;2.53;;;;;;;22.30;81.76;100054.19;5134279;27;20063;-62
2023/07/19 07:05:17;;;;;;;3.42;2.20;;;;;;;22.30;82.23;100055.03;5134128;27;20035;-62
2023/07/19 07:07:43;;;;;;;5.55;2.50;;;;;;;22.34;81.19;100055.34;5134094;27;20042;-63
2023/07/19 07:10:09;;;;;;;3.92;2.45;;;;;;;22.54;80.39;100058.25;5133865;27;20039;-60
2023/07/19 07:12:38;;;;;;;5.33;2.57;;;;;;;22.62;79.21;100048.81;5134065;27;20035;-63
2023/07/19 07:15:04;;;;;;;4.72;2.70;;;;;;;22.75;76.64;100053.81;5134111;27;20283;-62
2023/07/19 07:17:29;;;;;;;3.42;2.42;;;;;;;22.96;74.74;100052.97;5133828;27;20042;-62
2023/07/19 07:19:55;;;;;;;3.03;2.40;;;;;;;23.07;73.97;100044.88;5133786;27;20480;-62
2023/07/19 07:22:20;;;;;;;4.57;2.33;;;;;;;23.11;75.01;100040.59;5132527;27;20091;-62
2023/07/19 07:24:46;;;;;;;3.95;2.38;;;;;;;23.27;73.67;100043.13;5133728;27;20035;-63
2023/07/19 07:27:11;;;;;;;5.30;2.60;;;;;;;23.24;74.02;100042.84;5133745;27;20037;-63
2023/07/19 07:29:36;;;;;;;3.17;2.22;;;;;;;23.27;75.28;100036.88;5131520;27;20039;-63
2023/07/19 07:32:02;;;;;;;3.28;2.28;;;;;;;23.37;72.85;100033.41;5112985;28;20047;-63
2023/07/19 07:34:27;;;;;;;3.05;2.17;;;;;;;23.44;70.90;100042.97;5113185;28;20070;-63
2023/07/19 07:36:53;;;;;;;3.85;2.10;;;;;;;23.59;68.88;100033.25;5112927;28;20036;-62
2023/07/19 07:39:19;;;;;;;3.72;2.45;;;;;;;23.68;68.80;100035.25;5112824;28;20071;-62
2023/07/19 07:41:45;;;;;;;2.85;2.30;;;;;;;23.82;69.00;100038.31;5112887;28;20039;-62
2023/07/19 07:44:10;;;;;;;4.38;2.03;;;;;;;23.98;66.18;100034.56;5112939;28;20031;-61
2023/07/19 07:46:36;;;;;;;4.47;2.30;;;;;;;24.12;64.84;100025.88;5112760;28;20488;-62
2023/07/19 07:49:01;;;;;;;4.03;2.40;;;;;;;24.24;63.96;100023.75;5112719;28;20040;-63
2023/07/19 07:51:30;;;;;;;3.42;2.10;;;;;;;24.28;64.03;100025.66;5112732;28;20048;-62
2023/07/19 07:53:56;;;;;;;4.25;2.35;;;;;;;24.39;61.74;100022.97;5113016;28;20088;-63
2023/07/19 07:56:23;;;;;;;3.80;2.20;;;;;;;24.45;59.27;100027.34;5112496;28;20122;-63
2023/07/19 07:58:48;;;;;;;;;;;;;;;24.55;58.17;100030.91;5112895;28;20507;-58
2023/07/19 08:01:14;;;;;;;3.17;2.42;;;;;;;24.69;57.32;100023.03;5112731;28;19919;-56
2023/07/19 08:03:39;;;;;;;2.53;1.60;;;;;;;24.68;57.85;100020.59;5112687;28;20043;-58
2023/07/19 08:06:04;;;;;;;3.53;2.22;;;;;;;24.80;57.64;100019.22;5112440;28;20085;-56
2023/07/19 08:08:30;;;;;;;4.10;2.03;;;;;;;24.93;54.54;100015.13;5112337;28;20042;-56
2023/07/19 08:10:56;;;;;;;3.95;1.85;;;;;;;24.89;55.61;100008.59;5112461;28;20040;-57
2023/07/19 08:13:21;;;;;;;2.95;1.70;;;;;;;25.01;54.57;100003.69;5112541;28;20426;-55
2023/07/19 08:15:48;;;;;;;5.47;2.28;;;;;;;25.10;56.33;100007.53;5112415;28;20070;-57
2023/07/19 08:18:13;;;;;;;10.05;2.53;;;;;;;25.12;56.66;100010.78;5112469;28;20031;-53
2023/07/19 08:20:39;;;;;;;2.92;1.65;;;;;;;25.34;54.42;100005.00;5112018;28;20047;-57
2023/07/19 08:23:04;;;;;;;2.92;1.85;;;;;;;25.48;51.48;100001.69;5112424;28;20673;-56
2023/07/19 08:25:29;;;;;;;3.42;1.92;;;;;;;25.67;50.96;99997.25;5112322;28;20120;-59
2023/07/19 08:27:55;;;;;;;4.50;2.35;;;;;;;25.79;51.70;99999.72;5112361;28;20040;-58
2023/07/19 08:30:21;;;;;;;2.00;1.48;;;;;;;25.95;48.14;100001.25;5111970;28;20123;-62
2023/07/19 08:32:47;;;;;;;2.58;1.73;;;;;;;25.90;47.26;99998.56;5112458;28;20043;-61
2023/07/19 08:35:14;;;;;;;4.78;1.80;;;;;;;26.04;48.64;99994.13;5112175;28;20055;-63
2023/07/19 08:37:42;;;;;;;2.63;1.77;;;;;;;26.06;48.31;99988.38;5112432;28;20039;-63
2023/07/19 08:40:09;;;;;;;4.80;2.10;;;;;;;26.12;48.80;99976.34;5112333;28;20031;-63
2023/07/19 08:42:35;;;;;;;3.80;1.90;;;;;;;26.15;50.13;99973.88;5112304;28;20096;-63
2023/07/19 08:45:02;;;;;;;2.92;1.95;;;;;;;26.39;48.10;99986.78;5112247;28;20035;-63
2023/07/19 08:47:29;;;;;;;3.65;2.00;;;;;;;26.69;47.77;99988.53;5112387;28;20043;-63
2023/07/19 08:49:55;;;;;;;2.78;1.70;;;;;;;26.80;45.42;99976.41;5112039;28;20130;-61
2023/07/19 08:52:20;;;;;;;4.57;1.85;;;;;;;26.88;46.21;99980.44;5112070;28;20131;-61
2023/07/19 08:54:46;;;;;;;4.13;2.03;;;;;;;26.97;46.08;99973.22;5112135;28;20043;-59
2023/07/19 08:57:11;;;;;;;3.42;2.20;;;;;;;26.99;45.40;99976.47;5112058;28;20066;-61
2023/07/19 08:59:37;;;;;;;3.08;2.40;;;;;;;26.97;45.11;99970.50;5111910;28;20511;-62
2023/07/19 09:02:03;;;;;;;3.40;2.00;;;;;;;27.10;44.21;99969.03;5112088;28;20043;-60
2023/07/19 09:04:28;;;;;;;2.45;1.60;;;;;;;27.01;43.87;99961.44;5112059;28;20138;-62
2023/07/19 09:06:54;;;;;;;4.43;2.10;;;;;;;27.29;45.92;99962.53;5111949;28;20075;-63
2023/07/19 09:09:19;;;;;;;3.88;1.77;;;;;;;27.46;45.13;99962.06;5115679;28;20077;-63
2023/07/19 09:11:51;;;;;;;3.83;1.65;;;;;;;27.54;43.47;99952.41;5115609;28;20043;-63
2023/07/19 09:14:16;;;;;;;2.65;1.85;;;;;;;27.49;42.42;99941.53;5115878;28;20058;-63
2023/07/19 09:16:42;;;;;;;3.95;1.92;;;;;;;27.81;42.00;99940.84;5115707;28;20481;-63
2023/07/19 09:19:08;;;;;;;2.53;1.73;;;;;;;27.91;41.93;99940.72;5115556;28;20063;-63
2023/07/19 09:21:37;;;;;;;2.13;1.67;;;;;;;28.02;42.35;99941.38;5115564;28;20036;-63
2023/07/19 09:24:04;;;;;;;4.85;1.92;;;;;;;28.19;40.57;99933.47;5115876;28;20047;-63
2023/07/19 09:26:50;;;;;;;3.80;2.47;;;;;;;28.35;41.78;99934.03;5115913;28;20365;-63
2023/07/19 09:29:17;;;;;;;3.53;2.13;;;;;;;28.20;40.48;99932.34;5115394;28;20040;-63
2023/07/19 09:31:53;;;;;;;4.13;1.90;;;;;;;28.31;41.30;99928.38;5115320;28;20406;-63
2023/07/19 09:34:25;;;;;;;4.90;2.00;;;;;;;28.45;39.97;99922.94;5115567;28;20039;-63
2023/07/19 09:36:51;;;;;;;4.53;1.73;;;;;;;28.67;40.64;99925.00;5115319;28;20281;-61
2023/07/19 09:39:16;;;;;;;5.38;2.00;;;;;;;28.53;40.68;99922.25;5115159;28;20023;-63
2023/07/19 09:41:43;;;;;;;3.92;2.03;;;;;;;28.82;40.32;99918.44;5115648;28;20031;-61
2023/07/19 09:44:09;;;;;;;3.40;2.08;;;;;;;28.87;39.97;99918.34;5115431;28;20040;-63
2023/07/19 09:46:36;;;;;;;3.53;1.73;;;;;;;29.15;38.42;99920.06;5114995;28;20476;-62
2023/07/19 09:49:02;;;;;;;5.15;1.77;;;;;;;29.00;37.24;99908.56;5114781;28;20040;-63
2023/07/19 09:51:29;;;;;;;5.05;1.70;;;;;;;29.14;40.54;99918.41;5114349;28;20057;-61
2023/07/19 09:53:56;;;;;;;2.80;1.60;;;;;;;29.55;37.30;99914.06;5114142;28;20035;-63
2023/07/19 09:56:21;;;;;;;;;;;;;;;29.74;37.43;99920.22;5113475;28;20118;-63
2023/07/19 09:58:48;;;;;;;4.23;1.70;;;;;;;29.67;38.11;99926.13;5114582;28;19947;-63
2023/07/19 10:01:13;;;;;;;2.92;1.50;;;;;;;29.97;38.04;99924.63;5114505;28;20020;-63
2023/07/19 10:03:39;;;;;;;1.52;1.42;;;;;;;30.11;37.31;99923.78;5114318;28;20036;-63
2023/07/19 10:06:04;;;;;;;3.25;1.55;;;;;;;30.32;37.18;99910.38;5114543;28;20046;-62
2023/07/19 10:08:30;;;;;;;3.38;1.48;;;;;;;30.41;36.68;99914.00;5114431;28;20053;-61
2023/07/19 10:11:00;;;;;;;5.35;1.70;;;;;;;30.84;35.78;99927.19;5113944;28;20403;-61
2023/07/19 10:13:52;;;;;;;2.38;1.70;;;;;;;31.02;36.26;99913.22;5114291;28;20036;-61
2023/07/19 10:16:37;;;;;;;4.25;1.77;;;;;;;31.36;36.64;99909.00;5094324;28;20044;-63
2023/07/19 10:19:11;;;;;;;3.47;1.70;;;;;;;31.48;33.30;99911.94;5093734;28;20059;-62
2023/07/19 10:21:36;;;;;;;4.63;1.70;;;;;;;31.52;33.67;99909.38;5094107;28;20136;-62
2023/07/19 10:24:08;;;;;;;3.20;1.55;;;;;;;31.67;33.64;99900.63;5106754;28;20078;-63
2023/07/19 10:26:38;;;;;;;4.65;1.60;;;;;;;32.03;35.53;99907.81;5112883;28;20122;-63
2023/07/19 10:29:04;;;;;;;3.58;2.03;;;;;;;32.33;32.97;99911.53;5114241;28;20536;-63
2023/07/19 10:31:30;;;;;;;3.63;1.70;;;;;;;32.40;32.82;99903.59;5114432;28;20040;-62
2023/07/19 10:33:56;;;;;;;3.35;1.80;;;;;;;32.03;33.30;99899.56;5114277;28;20047;-62
2023/07/19 10:36:22;;;;;;;2.50;1.53;;;;;;;32.17;34.94;99897.44;5114197;28;20039;-62
2023/07/19 10:38:47;;;;;;;4.63;1.73;;;;;;;32.59;31.39;99900.47;5114055;28;20039;-63
2023/07/19 10:41:15;;;;;;;3.73;1.70;;;;;;;32.20;31.20;99890.47;5114346;28;20510;-63
2023/07/19 10:43:41;;;;;;;4.65;2.20;;;;;;;32.59;33.26;99898.50;5114159;28;20036;-63
2023/07/19 10:46:08;;;;;;;5.88;2.33;;;;;;;32.70;32.05;99878.88;5114152;28;20042;-63
2023/07/19 10:48:37;;;;;;;4.22;1.83;;;;;;;32.91;32.07;99893.56;5113973;28;20089;-62
2023/07/19 10:51:04;;;;;;;3.50;1.70;;;;;;;33.10;31.21;99884.88;5114176;28;20374;-63
2023/07/19 10:53:44;;;;;;;2.75;1.70;;;;;;;33.36;32.99;99885.56;5114132;28;20477;-64
2023/07/19 10:56:10;;;;;;;4.53;2.00;;;;;;;33.44;31.61;99876.44;5113828;28;20036;-62
2023/07/19 10:58:35;;;;;;;5.27;1.83;;;;;;;33.87;30.84;99878.06;5113727;28;20095;-64
2023/07/19 11:01:01;;;;;;;3.40;1.93;;;;;;;34.34;28.49;99868.72;5114054;28;20419;-64
2023/07/19 11:03:27;;;;;;;2.40;1.90;;;;;;;33.87;28.79;99863.47;5114082;28;20640;-62
2023/07/19 11:05:53;;;;;;;5.03;2.20;;;;;;;33.11;30.26;99862.47;5113678;28;20075;-61
2023/07/19 11:08:26;;;;;;;4.95;2.10;;;;;;;32.19;30.99;99864.06;5113498;28;20047;-63
2023/07/19 11:10:54;;;;;;;4.53;2.10;;;;;;;32.07;31.22;99857.25;5113594;28;20153;-63
2023/07/19 11:13:21;;;;;;;4.63;2.20;;;;;;;31.46;33.50;99852.84;5113560;28;20088;-63
2023/07/19 11:15:49;;;;;;;3.58;2.08;;;;;;;31.25;36.03;99847.16;5113397;28;20035;-63
2023/07/19 11:18:35;;;;;;;3.33;2.13;;;;;;;31.08;33.67;99845.13;5113217;28;20035;-62
2023/07/19 11:21:00;;;;;;;4.47;2.35;;;;;;;31.11;33.65;99851.97;5113440;28;20051;-63
2023/07/19 11:23:27;;;;;;;5.80;2.10;;;;;;;31.47;34.30;99843.47;5113408;28;20504;-63
2023/07/19 11:26:07;;;;;;;7.05;1.92;;;;;;;31.50;35.71;99840.09;5113317;28;20038;-63
2023/07/19 11:28:42;;;;;;;4.10;2.70;;;;;;;31.41;35.07;99837.31;5112894;28;20160;-63
2023/07/19 11:31:08;;;;;;;3.30;2.08;;;;;;;31.75;36.16;99830.19;5112586;28;20081;-64
2023/07/19 11:33:34;;;;;;;2.60;1.80;;;;;;;31.85;35.21;99829.91;5113221;28;20036;-63
2023/07/19 11:36:04;;;;;;;6.45;3.00;;;;;;;31.76;34.53;99823.56;5113074;28;20077;-63
2023/07/19 11:38:33;;;;;;;5.65;2.38;;;;;;;32.17;34.17;99833.28;5113041;28;20095;-61
2023/07/19 11:40:58;;;;;;;4.30;2.47;;;;;;;32.54;33.53;99829.81;5113083;28;20031;-62
2023/07/19 11:43:25;;;;;;;6.33;2.43;;;;;;;32.92;33.90;99835.31;5113068;28;20395;-62
2023/07/19 11:45:51;;;;;;;8.90;4.32;;;;;;;33.07;33.37;99833.16;5112854;28;20043;-62
2023/07/19 11:48:16;;;;;;;4.97;2.90;;;;;;;33.37;32.15;99825.66;5112755;28;20032;-62
2023/07/19 11:50:42;;;;;;;3.90;2.30;;;;;;;33.28;32.42;99828.47;5112831;28;20125;-61
2023/07/19 11:53:07;;;;;;;6.73;2.70;;;;;;;32.88;33.33;99822.53;5112905;28;20576;-63
2023/07/19 11:55:32;;;;;;;5.60;2.90;;;;;;;33.01;34.54;99820.69;5112930;28;20039;-63
2023/07/19 11:58:04;;;;;;;5.47;3.10;;;;;;;33.08;33.70;99810.75;5112822;28;20076;-61
2023/07/19 12:00:31;;;;;;;3.80;2.53;;;;;;;32.86;33.77;99824.78;5112397;28;20080;-62
2023/07/19 12:02:57;;;;;;;6.00;3.00;;;;;;;33.14;33.48;99814.13;5112828;28;20093;-62
2023/07/19 12:05:25;;;;;;;4.53;3.13;;;;;;;33.26;33.20;99807.88;5112826;28;20126;-62
2023/07/19 12:07:51;;;;;;;4.90;3.30;;;;;;;33.36;31.84;99810.22;5112746;28;20032;-64
2023/07/19 12:10:21;;;;;;;5.40;3.05;;;;;;;32.91;32.00;99802.56;5112460;28;20036;-63
2023/07/19 12:12:48;;;;;;;5.20;2.78;;;;;;;32.56;33.12;99805.47;5112730;28;20032;-63
2023/07/19 12:15:14;;;;;;;8.05;3.25;;;;;;;32.32;34.07;99807.94;5112418;28;20056;-62
2023/07/19 12:17:40;;;;;;;9.65;3.55;;;;;;;31.97;34.20;99798.97;5112599;28;20032;-62
2023/07/19 12:20:07;;;;;;;5.50;2.80;;;;;;;31.54;35.75;99802.50;5112203;28;20403;-62
2023/07/19 12:22:34;;;;;;;5.07;2.70;;;;;;;31.51;35.47;99808.69;5111233;28;20557;-63
2023/07/19 12:25:00;;;;;;;6.35;3.60;;;;;;;31.75;35.49;99802.66;5112357;28;20400;-63
2023/07/19 12:27:26;;;;;;;4.60;2.93;;;;;;;31.71;37.04;99801.72;5112429;28;20042;-63
2023/07/19 12:29:52;;;;;;;5.97;2.87;;;;;;;32.37;35.29;99796.78;5112210;28;20047;-63
2023/07/19 12:32:18;;;;;;;8.77;3.33;;;;;;;32.28;34.71;99812.50;5112398;28;20035;-62
2023/07/19 12:34:46;;;;;;;5.77;3.07;;;;;;;31.91;34.76;99803.81;5112527;28;20388;-62
2023/07/19 12:37:12;;;;;;;4.45;2.75;;;;;;;31.41;34.57;99801.53;5112270;28;20086;-61
2023/07/19 12:39:40;;;;;;;7.03;3.42;;;;;;;31.35;34.37;99802.81;5112060;28;20039;-62
2023/07/19 12:42:06;;;;;;;4.63;3.00;;;;;;;31.62;35.06;99787.94;5112526;28;20040;-62
2023/07/19 12:44:31;;;;;;;4.75;2.85;;;;;;;31.29;34.93;99790.34;5115448;28;20039;-62
2023/07/19 12:46:56;;;;;;;7.17;3.07;;;;;;;31.09;34.88;99786.25;5116524;28;20048;-63
2023/07/19 12:49:22;;;;;;;6.73;3.23;;;;;;;31.21;36.63;99796.63;5116284;28;20034;-63
2023/07/19 12:51:48;;;;;;;6.30;2.85;;;;;;;31.21;36.90;99802.13;5116406;27;20455;-63
2023/07/19 12:54:15;;;;;;;8.27;3.10;;;;;;;31.36;36.14;99781.63;5116410;28;20127;-62
2023/07/19 12:56:41;;;;;;;4.80;3.13;;;;;;;31.13;36.19;99795.50;5116382;28;20484;-63
2023/07/19 12:59:07;;;;;;;6.07;2.55;;;;;;;31.71;35.89;99798.97;5115944;28;20488;-62
2023/07/19 13:01:34;;;;;;;4.65;2.83;;;;;;;32.32;34.21;99802.44;5116278;28;20039;-63
2023/07/19 13:04:00;;;;;;;4.82;2.80;;;;;;;32.50;32.34;99801.28;5116431;28;20075;-63
2023/07/19 13:06:25;;;;;;;5.00;2.47;;;;;;;32.79;31.38;99796.91;5116219;28;20058;-62
2023/07/19 13:08:51;;;;;;;5.73;2.87;;;;;;;33.29;31.57;99799.72;5116299;28;20492;-63
2023/07/19 13:11:16;;;;;;;4.63;2.83;;;;;;;33.59;31.47;99797.75;5116412;28;20404;-63
2023/07/19 13:13:43;;;;;;;5.27;3.07;;;;;;;33.66;30.14;99800.78;5116369;28;20434;-63
2023/07/19 13:16:09;;;;;;;6.07;2.53;;;;;;;33.89;30.46;99803.16;5116095;28;20050;-63
2023/07/19 13:18:34;;;;;;;4.23;2.43;;;;;;;34.05;31.47;99809.69;5115629;28;20031;-63
2023/07/19 13:20:59;;;;;;;4.43;2.97;;;;;;;34.08;30.76;99794.38;5115734;28;20051;-63
2023/07/19 13:23:25;;;;;;;6.10;3.23;;;;;;;33.66;32.84;99806.28;5115874;28;20084;-63
2023/07/19 13:25:50;;;;;;;6.27;3.13;;;;;;;33.35;32.08;99800.34;5115793;28;20515;-63
2023/07/19 13:28:16;;;;;;;5.63;3.00;;;;;;;33.36;33.04;99800.00;5115464;28;20400;-63
2023/07/19 13:30:41;;;;;;;5.90;3.10;;;;;;;32.98;33.29;99791.81;5115560;28;20047;-63
2023/07/19 13:33:07;;;;;;;5.30;2.70;;;;;;;32.59;33.31;99802.03;5115530;28;20035;-63
2023/07/19 13:35:34;;;;;;;6.65;3.30;;;;;;;31.91;33.60;99794.75;5115566;28;20031;-62
2023/07/19 13:37:59;;;;;;;8.32;2.65;;;;;;;31.76;34.30;99782.28;5115508;28;20031;-63
2023/07/19 13:40:24;;;;;;;5.00;2.90;;;;;;;31.68;34.98;99794.09;5115186;28;20043;-62
2023/07/19 13:42:50;;;;;;;4.90;2.60;;;;;;;31.36;34.23;99779.69;5115431;28;20120;-62
2023/07/19 13:45:15;;;;;;;4.17;2.60;;;;;;;30.99;34.51;99784.63;5115229;28;20404;-63
2023/07/19 13:47:41;;;;;;;6.43;3.07;;;;;;;30.78;35.29;99767.91;5115375;27;20035;-61
2023/07/19 13:50:07;;;;;;;5.97;3.17;;;;;;;30.71;36.49;99772.25;5115027;28;20496;-62
2023/07/19 13:52:33;;;;;;;6.85;2.63;;;;;;;30.97;36.94;99781.41;5115219;27;20089;-62
2023/07/19 13:54:59;;;;;;;6.22;3.35;;;;;;;31.00;35.81;99778.00;5114630;28;20043;-62
2023/07/19 13:57:24;;;;;;;7.53;3.00;;;;;;;30.83;35.58;99771.63;5115083;28;20096;-62
2023/07/19 13:59:49;;;;;;;6.07;3.38;;;;;;;30.60;35.04;99774.47;5115422;27;20036;-62
2023/07/19 14:02:15;;;;;;;4.57;2.72;;;;;;;30.46;35.35;99774.56;5116048;27;20020;-62
2023/07/19 14:04:40;;;;;;;7.40;3.15;;;;;;;30.34;34.57;99768.84;5114795;28;20039;-62
2023/07/19 14:07:06;;;;;;;4.65;2.65;;;;;;;30.20;35.77;99766.19;5114601;28;20046;-62
2023/07/19 14:09:32;;;;;;;5.25;2.67;;;;;;;30.31;37.49;99771.41;5129274;27;20035;-62
2023/07/19 14:11:57;;;;;;;7.63;3.17;;;;;;;30.43;36.46;99772.44;5135258;27;20511;-62
2023/07/19 14:14:23;;;;;;;8.32;3.00;;;;;;;30.48;35.05;99768.75;5115216;27;20039;-62
2023/07/19 14:16:51;;;;;;;7.15;3.25;;;;;;;30.57;35.61;99772.31;5131397;27;20554;-63
2023/07/19 14:19:17;;;;;;;6.28;3.00;;;;;;;30.42;35.99;99759.84;5113764;28;20081;-62
2023/07/19 14:21:43;;;;;;;6.07;3.25;;;;;;;30.50;36.30;99761.78;5114512;28;20027;-62
2023/07/19 14:24:08;;;;;;;5.60;3.40;;;;;;;30.57;35.99;99771.53;5114492;28;20461;-62
2023/07/19 14:26:35;;;;;;;5.53;3.00;;;;;;;30.48;36.05;99761.31;5134338;27;20054;-63
2023/07/19 14:29:02;;;;;;;5.32;3.17;;;;;;;30.48;34.90;99758.56;5134567;27;20038;-62
2023/07/19 14:31:28;;;;;;;;;;;;;;;30.34;35.13;99762.56;5135327;27;20062;-61
2023/07/19 14:33:53;;;;;;;6.47;3.33;;;;;;;30.32;35.52;99778.53;5134903;27;19966;-61
2023/07/19 14:36:18;;;;;;;7.88;3.55;;;;;;;30.12;35.64;99761.44;5134808;27;20074;-62
2023/07/19 14:38:44;;;;;;;6.10;3.05;;;;;;;29.85;35.68;99770.63;5134447;27;20046;-62
2023/07/19 14:41:11;;;;;;;7.43;3.25;;;;;;;29.85;36.13;99776.13;5134808;27;20552;-62
2023/07/19 14:43:40;;;;;;;6.80;3.30;;;;;;;29.67;36.17;99763.41;5134647;27;20031;-62
2023/07/19 14:46:06;;;;;;;7.53;3.33;;;;;;;29.86;36.49;99765.94;5134452;27;20042;-63
2023/07/19 14:48:32;;;;;;;6.03;3.22;;;;;;;29.79;35.69;99769.13;5134206;27;20031;-61
2023/07/19 14:50:58;;;;;;;6.40;3.13;;;;;;;29.70;36.33;99773.75;5134367;27;20540;-61
2023/07/19 14:53:23;;;;;;;10.43;3.70;;;;;;;29.58;36.42;99771.56;5134490;27;20035;-61
2023/07/19 14:55:49;;;;;;;6.03;3.17;;;;;;;29.63;37.06;99770.63;5134466;27;20079;-61
2023/07/19 14:58:15;;;;;;;8.60;3.43;;;;;;;29.62;36.34;99764.34;5134150;27;20122;-61
2023/07/19 15:00:40;;;;;;;11.10;4.07;;;;;;;29.76;36.53;99775.25;5134175;27;20323;-61
2023/07/19 15:03:06;;;;;;;8.00;3.63;;;;;;;29.87;36.60;99773.91;5123916;27;20039;-61
2023/07/19 15:05:31;;;;;;;12.43;4.35;;;;;;;29.82;36.40;99768.53;5110180;28;20028;-61
2023/07/19 15:07:56;;;;;;;6.63;3.45;;;;;;;29.71;36.18;99778.13;5113221;28;20492;-62
2023/07/19 15:10:22;;;;;;;6.10;2.90;;;;;;;29.73;37.45;99762.16;5111724;28;20088;-63
2023/07/19 15:12:47;;;;;;;5.22;2.95;;;;;;;29.58;36.79;99768.00;5113300;28;20118;-61
2023/07/19 15:15:13;;;;;;;7.30;3.40;;;;;;;29.47;36.16;99759.16;5113325;28;20105;-59
2023/07/19 15:17:38;;;;;;;11.63;4.05;;;;;;;29.26;35.97;99753.34;5113412;28;20408;-59
2023/07/19 15:20:04;;;;;;;5.40;2.90;;;;;;;29.12;36.27;99761.63;5112663;28;20105;-64
2023/07/19 15:22:31;;;;;;;8.40;3.60;;;;;;;29.12;37.36;99753.38;5113600;28;20400;-64
2023/07/19 15:24:56;;;;;;;7.80;3.25;;;;;;;29.26;37.37;99752.53;5113654;28;20412;-63
2023/07/19 15:27:21;;;;;;;8.90;4.03;;;;;;;29.34;37.55;99746.31;5110918;28;20043;-61
2023/07/19 15:29:47;;;;;;;6.82;3.67;;;;;;;29.50;36.27;99766.78;5111091;28;20084;-61
2023/07/19 15:32:12;;;;;;;6.82;2.88;;;;;;;29.38;34.70;99759.09;5126035;27;20042;-62
2023/07/19 15:34:38;;;;;;;5.32;3.03;;;;;;;29.35;35.43;99762.47;5133574;27;20658;-60
2023/07/19 15:37:03;;;;;;;5.85;2.95;;;;;;;29.34;34.72;99762.78;5133788;27;20066;-62
2023/07/19 15:39:31;;;;;;;5.68;2.80;;;;;;;29.26;34.62;99761.59;5133162;27;20042;-63
2023/07/19 15:41:58;;;;;;;4.10;2.63;;;;;;;29.26;34.78;99756.09;5133528;27;20091;-62
2023/07/19 15:44:23;;;;;;;4.97;2.78;;;;;;;29.19;34.46;99772.97;5133456;27;20035;-62
2023/07/19 15:46:50;;;;;;;4.28;2.30;;;;;;;29.15;34.54;99761.00;5121365;27;20376;-63